Bilder 1

Dies ist eine Bilderseite.

Test

test article

Seite 3.3

Seite 3.3
[Quelle: ADDS]
METAR
ETNN 240920Z 30007KT 9999 SCT022 BKN060 18/14 Q1021 BLU BLU
TAF
TAF ETNN 240710Z 2408/2417 26005KT 9999 NSW FEW012 BKN050 TEMPO 2408/2409 30007KT 7000 NSW BKN008 BKN040 BECMG 2409/2411 31007KT 9999 NSW FEW020 BKN050
SR / SS: 03:55 / 19:29 UTC (ETNN 2024-07-24)

Seite 3.2

Seite 3.2

Seite 3.1

Seite 3.1